createdAt,value
2019-06-08T00:00:33.886Z,51.00
2019-06-08T00:03:02.553Z,51.92
2019-06-08T00:05:31.254Z,51.75
2019-06-08T00:07:59.648Z,52.75
2019-06-08T00:10:28.019Z,52.00
2019-06-08T00:12:56.422Z,51.55
2019-06-08T00:15:24.822Z,52.07
2019-06-08T00:17:53.482Z,51.88
2019-06-08T00:20:21.976Z,52.68
2019-06-08T00:22:50.351Z,53.10
2019-06-08T00:25:20.517Z,53.34
2019-06-08T00:27:49.462Z,53.58
2019-06-08T00:30:18.455Z,52.17
2019-06-08T00:32:46.842Z,53.09
2019-06-08T00:35:16.560Z,52.91
2019-06-08T00:37:45.050Z,52.78
2019-06-08T00:40:14.783Z,52.79
2019-06-08T00:42:43.354Z,51.75
2019-06-08T00:45:13.102Z,53.17
2019-06-08T00:47:47.482Z,53.26
2019-06-08T00:50:12.345Z,51.18
2019-06-08T00:52:40.722Z,52.18
2019-06-08T00:55:09.664Z,50.21
2019-06-08T00:57:38.545Z,49.95
2019-06-08T01:00:10.561Z,49.64
2019-06-08T01:02:38.183Z,49.84
2019-06-08T01:05:07.995Z,49.54
2019-06-08T01:07:36.382Z,47.67
2019-06-08T01:10:07.031Z,47.65
2019-06-08T01:12:35.709Z,47.64
2019-06-08T01:15:07.577Z,47.82
2019-06-08T01:17:35.957Z,47.70
2019-06-08T01:20:07.445Z,47.04
2019-06-08T01:22:35.991Z,47.87
2019-06-08T01:25:05.850Z,46.39
2019-06-08T01:27:34.494Z,46.52
2019-06-08T01:30:03.957Z,46.52
2019-06-08T01:32:32.426Z,46.48
2019-06-08T01:35:00.813Z,47.84
2019-06-08T01:37:29.208Z,46.51
2019-06-08T01:39:57.606Z,46.43
2019-06-08T01:42:26.008Z,47.26
2019-06-08T01:44:54.408Z,47.78
2019-06-08T01:47:24.518Z,48.56
2019-06-08T01:49:53.067Z,48.77
2019-06-08T01:52:22.513Z,47.70
2019-06-08T01:54:51.213Z,48.77
2019-06-08T01:57:19.625Z,47.84
2019-06-08T01:59:48.024Z,48.67
2019-06-08T02:02:16.415Z,48.41
2019-06-08T02:04:44.861Z,47.38
2019-06-08T02:07:13.376Z,48.49
2019-06-08T02:09:42.024Z,48.40
2019-06-08T02:12:10.410Z,48.37
2019-06-08T02:14:39.104Z,47.63
2019-06-08T02:17:07.782Z,48.92
2019-06-08T02:19:36.174Z,47.55
2019-06-08T02:22:04.556Z,47.17
2019-06-08T02:24:33.389Z,47.79
2019-06-08T02:27:01.739Z,48.09
2019-06-08T02:29:31.332Z,47.94
2019-06-08T02:32:00.355Z,47.95
2019-06-08T02:34:30.565Z,48.57
2019-06-08T02:36:58.876Z,48.26
2019-06-08T02:39:28.476Z,47.71
2019-06-08T02:41:56.931Z,48.01
2019-06-08T02:44:25.353Z,48.23
2019-06-08T02:46:54.012Z,48.13
2019-06-08T02:49:22.400Z,48.26
2019-06-08T02:51:51.135Z,48.36
2019-06-08T02:54:19.991Z,47.48
2019-06-08T02:56:51.400Z,48.13
2019-06-08T02:59:22.840Z,49.20
2019-06-08T03:01:52.804Z,48.50
2019-06-08T03:04:24.006Z,47.13
2019-06-08T03:06:53.448Z,47.76
2019-06-08T03:09:23.617Z,47.70
2019-06-08T03:11:55.339Z,48.01
2019-06-08T03:14:27.656Z,47.77
2019-06-08T03:16:56.390Z,48.62
2019-06-08T03:19:24.745Z,48.06
2019-06-08T03:21:53.147Z,47.13
2019-06-08T03:24:21.532Z,47.95
2019-06-08T03:26:49.961Z,47.27
2019-06-08T03:29:18.339Z,47.04
2019-06-08T03:31:55.058Z,47.12
2019-06-08T03:34:16.878Z,47.16
2019-06-08T03:36:54.493Z,47.43
2019-06-08T03:39:15.451Z,48.04
2019-06-08T03:41:45.245Z,47.01
2019-06-08T03:44:13.824Z,49.19
2019-06-08T03:46:44.072Z,46.82
2019-06-08T03:49:12.553Z,47.27
2019-06-08T03:51:45.780Z,46.73
2019-06-08T03:54:11.419Z,47.41
2019-06-08T03:56:40.188Z,46.75
2019-06-08T03:59:09.924Z,47.24
2019-06-08T04:01:39.788Z,47.65
2019-06-08T04:04:08.991Z,48.55
2019-06-08T04:06:37.783Z,48.13
2019-06-08T04:09:07.708Z,47.95
2019-06-08T04:11:37.775Z,47.79
2019-06-08T04:14:06.454Z,47.58
2019-06-08T04:16:34.830Z,47.20
2019-06-08T04:19:03.222Z,47.45
2019-06-08T04:21:31.868Z,48.18
2019-06-08T04:24:00.252Z,47.69
2019-06-08T04:26:28.966Z,48.06
2019-06-08T04:28:57.359Z,48.45
2019-06-08T04:31:26.122Z,48.15
2019-06-08T04:33:54.513Z,49.57
2019-06-08T04:36:22.915Z,48.97
2019-06-08T04:38:51.311Z,49.30
2019-06-08T04:41:19.990Z,49.08
2019-06-08T04:43:49.903Z,48.67
2019-06-08T04:46:18.608Z,48.92
2019-06-08T04:48:50.062Z,48.45
2019-06-08T04:51:18.589Z,48.20
2019-06-08T04:53:47.307Z,48.74
2019-06-08T04:56:17.432Z,48.31
2019-06-08T04:58:46.814Z,48.05
2019-06-08T05:01:16.237Z,48.92
2019-06-08T05:03:45.597Z,49.89
2019-06-08T05:06:14.771Z,48.95
2019-06-08T05:08:43.238Z,49.28
2019-06-08T05:11:11.624Z,48.12
2019-06-08T05:13:41.094Z,48.62
2019-06-08T05:16:09.597Z,49.00
2019-06-08T05:18:39.191Z,47.65
2019-06-08T05:21:07.692Z,47.49
2019-06-08T05:23:36.076Z,48.78
2019-06-08T05:26:04.995Z,46.87
2019-06-08T05:28:33.382Z,46.62
2019-06-08T05:31:01.846Z,46.50
2019-06-08T05:33:30.541Z,46.53
2019-06-08T05:35:58.930Z,46.51
2019-06-08T05:38:27.328Z,46.46
2019-06-08T05:40:55.710Z,46.78
2019-06-08T05:43:24.106Z,47.17
2019-06-08T05:45:52.489Z,46.14
2019-06-08T05:48:20.885Z,45.88
2019-06-08T05:51:00.198Z,46.19
2019-06-08T05:53:19.422Z,45.59
2019-06-08T05:55:48.041Z,45.70
2019-06-08T05:58:16.422Z,45.82
2019-06-08T06:00:46.257Z,45.91
2019-06-08T06:03:14.691Z,46.00
2019-06-08T06:05:44.285Z,45.89
2019-06-08T06:08:18.864Z,46.38
2019-06-08T06:10:42.964Z,45.99
2019-06-08T06:13:11.367Z,45.82
2019-06-08T06:15:40.968Z,45.58
2019-06-08T06:18:09.435Z,45.97
2019-06-08T06:20:37.828Z,47.34
2019-06-08T06:23:06.321Z,46.19
2019-06-08T06:25:34.972Z,47.45
2019-06-08T06:28:06.198Z,46.54
2019-06-08T06:30:33.512Z,46.11
2019-06-08T06:33:01.906Z,47.56
2019-06-08T06:35:30.327Z,46.65
2019-06-08T06:37:58.730Z,46.56
2019-06-08T06:40:27.128Z,47.31
2019-06-08T06:42:55.547Z,46.93
2019-06-08T06:45:24.207Z,46.80
2019-06-08T06:47:52.787Z,45.99
2019-06-08T06:50:21.184Z,45.97
2019-06-08T06:52:50.769Z,46.91
2019-06-08T06:55:19.136Z,46.97
2019-06-08T06:57:47.580Z,46.09
2019-06-08T07:00:19.301Z,45.70
2019-06-08T07:02:47.699Z,47.12
2019-06-08T07:05:16.159Z,47.21
2019-06-08T07:07:45.896Z,45.67
2019-06-08T07:10:15.127Z,46.68
2019-06-08T07:12:44.456Z,46.27
2019-06-08T07:15:16.270Z,46.37
2019-06-08T07:17:45.958Z,46.47
2019-06-08T07:20:14.958Z,47.25
2019-06-08T07:22:43.381Z,46.06
2019-06-08T07:25:12.104Z,46.99
2019-06-08T07:27:40.831Z,45.31
2019-06-08T07:30:09.581Z,45.82
2019-06-08T07:32:38.320Z,45.65
2019-06-08T07:35:11.451Z,45.55
2019-06-08T07:37:45.555Z,47.26
2019-06-08T07:40:14.502Z,45.32
2019-06-08T07:42:42.904Z,46.66
2019-06-08T07:45:13.575Z,46.16
2019-06-08T07:47:41.929Z,46.19
2019-06-08T07:50:10.660Z,46.05
2019-06-08T07:52:42.409Z,45.68
2019-06-08T07:55:11.458Z,45.07
2019-06-08T07:57:39.863Z,44.10
2019-06-08T08:00:09.791Z,44.01
2019-06-08T08:02:38.413Z,44.65
2019-06-08T08:05:09.607Z,44.93
2019-06-08T08:07:39.585Z,45.38
2019-06-08T08:10:10.144Z,45.11
2019-06-08T08:12:38.623Z,44.22
2019-06-08T08:15:08.768Z,43.99
2019-06-08T08:17:45.955Z,44.60
2019-06-08T08:20:15.027Z,45.75
2019-06-08T08:22:43.488Z,44.69
2019-06-08T08:25:12.109Z,45.34
2019-06-08T08:27:40.499Z,44.49
2019-06-08T08:30:09.516Z,44.30
2019-06-08T08:32:38.232Z,45.41
2019-06-08T08:35:08.880Z,44.55
2019-06-08T08:37:38.284Z,45.09
2019-06-08T08:40:08.453Z,44.72
2019-06-08T08:42:38.741Z,44.11
2019-06-08T08:45:08.786Z,43.89
2019-06-08T08:47:38.671Z,44.41
2019-06-08T08:50:10.127Z,44.01
2019-06-08T08:52:40.893Z,43.85
2019-06-08T08:55:08.945Z,43.55
2019-06-08T08:57:38.546Z,44.08
2019-06-08T09:00:08.901Z,43.84
2019-06-08T09:02:37.516Z,44.41
2019-06-08T09:05:08.379Z,44.11
2019-06-08T09:07:38.508Z,44.49
2019-06-08T09:10:11.291Z,44.38
2019-06-08T09:12:38.911Z,44.53
2019-06-08T09:15:08.591Z,44.57
2019-06-08T09:17:38.816Z,44.86
2019-06-08T09:20:11.021Z,44.34
2019-06-08T09:22:52.452Z,44.28
2019-06-08T09:25:10.572Z,44.48
2019-06-08T09:27:39.520Z,43.92
2019-06-08T09:30:08.623Z,43.76
2019-06-08T09:32:38.193Z,43.76
2019-06-08T09:35:09.060Z,42.63
2019-06-08T09:37:37.618Z,45.26
2019-06-08T09:40:06.544Z,42.45
2019-06-08T09:42:34.937Z,41.17
2019-06-08T09:45:05.570Z,44.82
2019-06-08T09:47:34.869Z,42.90
2019-06-08T09:50:05.690Z,41.67
2019-06-08T09:52:34.858Z,41.72
2019-06-08T09:55:05.021Z,42.79
2019-06-08T09:57:33.452Z,41.91
2019-06-08T10:00:08.650Z,42.47
2019-06-08T10:02:31.971Z,41.10
2019-06-08T10:05:02.427Z,42.09
2019-06-08T10:07:31.334Z,42.02
2019-06-08T10:10:02.532Z,42.22
2019-06-08T10:12:30.051Z,42.56
2019-06-08T10:14:58.766Z,42.19
2019-06-08T10:17:27.908Z,42.15
2019-06-08T10:19:59.261Z,42.68
2019-06-08T10:22:28.241Z,42.00
2019-06-08T10:24:58.025Z,41.50
2019-06-08T10:27:28.353Z,42.62
2019-06-08T10:29:59.994Z,43.48
2019-06-08T10:32:28.192Z,42.72
2019-06-08T10:34:59.978Z,42.71
2019-06-08T10:37:28.380Z,41.61
2019-06-08T10:40:00.647Z,41.64
2019-06-08T10:42:27.491Z,41.75
2019-06-08T10:45:02.369Z,42.16
2019-06-08T10:47:29.546Z,42.78
2019-06-08T10:49:59.525Z,43.48
2019-06-08T10:52:28.175Z,43.18
2019-06-08T10:54:59.212Z,42.69
2019-06-08T10:57:27.990Z,43.64
2019-06-08T10:59:58.783Z,42.79
2019-06-08T11:02:30.782Z,45.08
2019-06-08T11:05:04.660Z,42.36
2019-06-08T11:07:29.571Z,42.25
2019-06-08T11:09:58.743Z,40.96
2019-06-08T11:12:28.468Z,43.77
2019-06-08T11:14:58.364Z,42.35
2019-06-08T11:17:27.929Z,42.46
2019-06-08T11:20:04.795Z,40.22
2019-06-08T11:22:34.455Z,41.08
2019-06-08T11:25:05.932Z,41.23
2019-06-08T11:27:34.433Z,44.26
2019-06-08T11:30:20.458Z,40.39
2019-06-08T11:32:42.903Z,40.14
2019-06-08T11:35:12.630Z,40.58
2019-06-08T11:37:41.317Z,37.62
2019-06-08T11:40:12.317Z,37.64
2019-06-08T11:42:40.528Z,39.14
2019-06-08T11:45:12.735Z,39.33
2019-06-08T11:47:58.430Z,38.05
2019-06-08T11:50:42.251Z,39.55
2019-06-08T11:53:14.406Z,39.52
2019-06-08T11:55:43.551Z,39.45
2019-06-08T11:58:13.757Z,39.90
2019-06-08T12:01:03.049Z,40.81
2019-06-08T12:03:31.509Z,41.41
2019-06-08T12:06:00.003Z,40.27
2019-06-08T12:08:28.751Z,39.09
2019-06-08T12:11:01.270Z,39.76
2019-06-08T12:13:27.898Z,40.21
2019-06-08T12:15:58.713Z,41.29
2019-06-08T12:18:27.831Z,38.62
2019-06-08T12:20:58.401Z,37.51
2019-06-08T12:23:27.051Z,36.25
2019-06-08T12:25:55.420Z,37.10
2019-06-08T12:28:23.799Z,37.27
2019-06-08T12:30:55.278Z,38.09
2019-06-08T12:33:23.887Z,37.36
2019-06-08T12:35:52.402Z,38.36
2019-06-08T12:38:20.839Z,39.02
2019-06-08T12:40:49.233Z,39.02
2019-06-08T12:43:19.826Z,40.22
2019-06-08T12:45:47.833Z,39.42
2019-06-08T12:48:20.432Z,39.75
2019-06-08T12:50:47.832Z,39.84
2019-06-08T12:53:20.735Z,39.81
2019-06-08T12:55:47.550Z,39.50
2019-06-08T12:58:21.823Z,41.27
2019-06-08T13:00:48.306Z,40.05
2019-06-08T13:03:18.778Z,40.77
2019-06-08T13:05:47.399Z,39.10
2019-06-08T13:08:15.780Z,39.08
2019-06-08T13:10:44.900Z,40.83
2019-06-08T13:13:14.434Z,40.98
2019-06-08T13:15:48.912Z,38.79
2019-06-08T13:18:19.814Z,39.81
2019-06-08T13:20:51.478Z,39.02
2019-06-08T13:23:19.608Z,38.01
2019-06-08T13:25:48.135Z,37.31
2019-06-08T13:28:19.210Z,36.71
2019-06-08T13:30:47.852Z,36.12
2019-06-08T13:33:16.406Z,37.24
2019-06-08T13:35:44.830Z,38.16
2019-06-08T13:38:13.211Z,38.47
2019-06-08T13:40:41.607Z,38.76
2019-06-08T13:43:11.239Z,39.60
2019-06-08T13:45:39.711Z,36.92
2019-06-08T13:48:12.009Z,37.29
2019-06-08T13:50:44.010Z,37.84
2019-06-08T13:53:14.568Z,38.71
2019-06-08T13:55:53.296Z,38.00
2019-06-08T13:58:13.674Z,37.62
2019-06-08T14:00:42.083Z,38.39
2019-06-08T14:03:10.742Z,39.17
2019-06-08T14:05:39.291Z,39.75
2019-06-08T14:08:10.623Z,39.00
2019-06-08T14:10:39.477Z,39.38
2019-06-08T14:13:08.324Z,38.62
2019-06-08T14:15:37.933Z,39.63
2019-06-08T14:18:08.898Z,39.17
2019-06-08T14:20:38.543Z,38.47
2019-06-08T14:23:09.194Z,39.02
2019-06-08T14:25:50.160Z,40.78
2019-06-08T14:28:08.936Z,38.10
2019-06-08T14:30:37.905Z,38.33
2019-06-08T14:33:08.239Z,39.18
2019-06-08T14:35:36.503Z,39.16
2019-06-08T14:38:04.902Z,40.20
2019-06-08T14:40:33.293Z,39.61
2019-06-08T14:43:01.672Z,38.42
2019-06-08T14:45:31.129Z,38.18
2019-06-08T14:47:59.753Z,38.23
2019-06-08T14:50:30.684Z,37.66
2019-06-08T14:52:59.175Z,38.81
2019-06-08T14:55:32.089Z,39.19
2019-06-08T14:57:58.281Z,47.34
2019-06-08T15:00:27.770Z,53.42
2019-06-08T15:02:58.958Z,54.64
2019-06-08T15:05:30.695Z,56.30
2019-06-08T15:08:08.374Z,54.66
2019-06-08T15:10:43.016Z,56.06
2019-06-08T15:13:11.898Z,52.94
2019-06-08T15:15:40.350Z,51.45
2019-06-08T15:18:11.057Z,51.37
2019-06-08T15:20:38.929Z,50.48
2019-06-08T15:23:08.525Z,47.40
2019-06-08T15:25:38.718Z,48.27
2019-06-08T15:28:08.183Z,48.11
2019-06-08T15:30:38.053Z,45.94
2019-06-08T15:33:06.671Z,47.00
2019-06-08T15:35:37.506Z,48.18
2019-06-08T15:38:05.385Z,46.77
2019-06-08T15:40:33.802Z,44.94
2019-06-08T15:43:02.281Z,45.15
2019-06-08T15:45:32.893Z,41.61
2019-06-08T15:48:01.383Z,43.21
2019-06-08T15:50:30.662Z,43.95
2019-06-08T15:53:00.104Z,41.17
2019-06-08T15:55:31.286Z,41.00
2019-06-08T15:57:59.033Z,41.49
2019-06-08T16:00:32.554Z,42.41
2019-06-08T16:02:58.242Z,40.46
2019-06-08T16:05:27.727Z,41.18
2019-06-08T16:07:56.299Z,40.73
2019-06-08T16:10:26.190Z,39.95
2019-06-08T16:12:54.696Z,39.95
2019-06-08T16:15:23.081Z,40.37
2019-06-08T16:17:51.726Z,40.86
2019-06-08T16:20:20.425Z,40.38
2019-06-08T16:22:48.803Z,39.85
2019-06-08T16:25:17.291Z,39.57
2019-06-08T16:27:45.667Z,39.17
2019-06-08T16:30:16.813Z,39.88
2019-06-08T16:32:45.255Z,39.72
2019-06-08T16:35:13.710Z,40.54
2019-06-08T16:37:42.119Z,40.07
2019-06-08T16:40:11.172Z,40.61
2019-06-08T16:42:39.574Z,41.55
2019-06-08T16:45:09.057Z,40.78
2019-06-08T16:47:43.316Z,40.68
2019-06-08T16:50:24.099Z,40.83
2019-06-08T16:52:41.861Z,40.51
2019-06-08T16:55:10.583Z,40.84
2019-06-08T16:57:41.071Z,40.67
2019-06-08T17:02:39.637Z,41.30
2019-06-08T17:05:08.191Z,40.74
2019-06-08T17:07:41.086Z,40.86
2019-06-08T17:10:09.615Z,41.27
2019-06-08T17:12:40.122Z,41.67
2019-06-08T17:15:08.835Z,41.88
2019-06-08T17:17:40.399Z,42.02
2019-06-08T17:20:09.737Z,42.18
2019-06-08T17:22:38.801Z,42.64
2019-06-08T17:25:09.506Z,42.86
2019-06-08T17:27:38.975Z,43.71
2019-06-08T17:30:08.974Z,45.53
2019-06-08T17:32:40.553Z,47.99
2019-06-08T17:35:10.107Z,51.04
2019-06-08T17:37:39.965Z,52.29
2019-06-08T17:40:09.994Z,53.60
2019-06-08T17:42:39.557Z,58.62
2019-06-08T17:45:08.988Z,54.40
2019-06-08T17:47:38.508Z,52.97
2019-06-08T17:50:07.475Z,55.31
2019-06-08T17:52:37.052Z,53.60
2019-06-08T17:55:09.817Z,49.94
2019-06-08T17:57:48.496Z,50.29
2019-06-08T18:00:11.225Z,51.34
2019-06-08T18:02:43.304Z,51.15
2019-06-08T18:05:10.532Z,51.22
2019-06-08T18:07:42.287Z,51.61
2019-06-08T18:10:13.392Z,51.98
2019-06-08T18:12:49.048Z,51.09
2019-06-08T18:15:18.391Z,51.75
2019-06-08T18:17:57.699Z,50.86
2019-06-08T18:20:28.238Z,51.47
2019-06-08T18:22:57.800Z,52.21
2019-06-08T18:25:27.866Z,51.91
2019-06-08T18:28:07.164Z,52.65
2019-06-08T18:30:27.695Z,52.02
2019-06-08T18:32:58.039Z,52.02
2019-06-08T18:35:27.748Z,52.63
2019-06-08T18:37:57.830Z,51.50
2019-06-08T18:40:27.288Z,53.23
2019-06-08T18:42:57.688Z,52.07
2019-06-08T18:45:27.666Z,52.19
2019-06-08T18:48:00.280Z,52.78
2019-06-08T18:50:30.305Z,52.31
2019-06-08T18:52:58.696Z,52.25
2019-06-08T18:55:27.714Z,52.41
2019-06-08T18:57:57.150Z,52.36
2019-06-08T19:00:39.790Z,52.89
2019-06-08T19:03:08.584Z,52.55
2019-06-08T19:05:40.200Z,52.59
2019-06-08T19:08:10.026Z,52.63
2019-06-08T19:10:41.081Z,52.30
2019-06-08T19:13:10.239Z,52.79
2019-06-08T19:15:42.486Z,53.18
2019-06-08T19:18:09.284Z,53.72
2019-06-08T19:20:42.884Z,53.20
2019-06-08T19:23:09.138Z,53.04
2019-06-08T19:25:42.104Z,53.69
2019-06-08T19:28:08.103Z,53.57
2019-06-08T19:30:39.440Z,53.79
2019-06-08T19:33:07.349Z,53.97
2019-06-08T19:35:35.872Z,54.42
2019-06-08T19:38:04.321Z,55.28
2019-06-08T19:40:33.013Z,55.00
2019-06-08T19:43:01.679Z,54.63
2019-06-08T19:45:30.178Z,54.87
2019-06-08T19:47:58.573Z,54.74
2019-06-08T19:50:28.689Z,56.04
2019-06-08T19:52:58.081Z,56.99
2019-06-08T19:55:26.657Z,57.25
2019-06-08T19:57:57.063Z,57.70
2019-06-08T20:00:27.515Z,57.67
2019-06-08T20:02:57.667Z,58.06
2019-06-08T20:05:27.892Z,58.00
2019-06-08T20:07:57.474Z,58.65
2019-06-08T20:10:28.044Z,58.76
2019-06-08T20:12:57.625Z,59.08
2019-06-08T20:15:26.229Z,58.88
2019-06-08T20:17:57.256Z,59.13
2019-06-08T20:20:24.767Z,59.77
2019-06-08T20:22:53.617Z,59.89
2019-06-08T20:25:22.019Z,59.83
2019-06-08T20:27:51.653Z,60.27
2019-06-08T20:30:20.354Z,60.71
2019-06-08T20:32:51.916Z,61.21
2019-06-08T20:35:19.151Z,61.05
2019-06-08T20:37:47.926Z,61.15
2019-06-08T20:40:17.986Z,60.93
2019-06-08T20:42:49.599Z,60.45
2019-06-08T20:45:17.339Z,60.90
2019-06-08T20:47:49.465Z,61.23
2019-06-08T20:50:17.637Z,61.11
2019-06-08T20:52:47.258Z,61.05
2019-06-08T20:55:17.481Z,61.77
2019-06-08T20:57:48.163Z,62.14
2019-06-08T21:00:16.599Z,62.05
2019-06-08T21:02:46.351Z,62.91
2019-06-08T21:05:15.112Z,63.18
2019-06-08T21:07:43.819Z,63.37
2019-06-08T21:10:13.698Z,63.66
2019-06-08T21:12:42.082Z,63.62
2019-06-08T21:15:11.296Z,63.57
2019-06-08T21:17:39.680Z,63.51
2019-06-08T21:20:08.677Z,63.37
2019-06-08T21:22:37.190Z,63.45
2019-06-08T21:25:08.955Z,63.50
2019-06-08T21:27:38.526Z,63.80
2019-06-08T21:30:19.943Z,63.95
2019-06-08T21:32:39.517Z,64.24
2019-06-08T21:35:18.184Z,64.54
2019-06-08T21:37:48.173Z,64.81
2019-06-08T21:40:17.596Z,65.10
2019-06-08T21:42:48.826Z,65.27
2019-06-08T21:45:18.745Z,65.71
2019-06-08T21:47:48.453Z,65.68
2019-06-08T21:50:18.632Z,65.60
2019-06-08T21:52:48.627Z,65.98
2019-06-08T21:55:17.753Z,65.71
2019-06-08T21:57:49.571Z,65.73
2019-06-08T22:00:38.095Z,66.03
2019-06-08T22:02:48.105Z,65.98
2019-06-08T22:05:19.209Z,66.05
2019-06-08T22:07:47.592Z,66.05
2019-06-08T22:10:17.948Z,66.19
2019-06-08T22:12:48.306Z,66.62
2019-06-08T22:15:18.279Z,66.96
2019-06-08T22:17:47.677Z,67.29
2019-06-08T22:20:18.476Z,67.66
2019-06-08T22:22:47.290Z,67.80
2019-06-08T22:25:17.515Z,67.96
2019-06-08T22:27:46.424Z,68.15
2019-06-08T22:30:34.740Z,68.27
2019-06-08T22:32:47.381Z,68.34
2019-06-08T22:35:16.296Z,68.46
2019-06-08T22:37:44.976Z,68.73
2019-06-08T22:40:13.712Z,68.66
2019-06-08T22:42:42.353Z,68.61
2019-06-08T22:45:11.089Z,68.76
2019-06-08T22:47:39.744Z,68.95
2019-06-08T22:50:08.769Z,69.05
2019-06-08T22:52:37.755Z,69.04
2019-06-08T22:55:10.710Z,69.00
2019-06-08T22:57:37.663Z,68.94
2019-06-08T23:00:14.522Z,69.06
2019-06-08T23:02:38.413Z,69.03
2019-06-08T23:05:08.941Z,69.28
2019-06-08T23:07:37.619Z,69.31
2019-06-08T23:10:09.409Z,69.30
2019-06-08T23:12:38.311Z,69.37
2019-06-08T23:15:08.889Z,69.40
2019-06-08T23:17:38.782Z,69.55
2019-06-08T23:20:08.732Z,69.63
2019-06-08T23:22:38.398Z,69.77
2019-06-08T23:25:09.553Z,69.73
2019-06-08T23:27:37.997Z,69.68
2019-06-08T23:30:10.210Z,69.67
2019-06-08T23:32:38.713Z,69.68
2019-06-08T23:35:09.456Z,69.76
2019-06-08T23:37:38.378Z,69.71
2019-06-08T23:40:07.865Z,69.62
2019-06-08T23:42:38.288Z,69.61
2019-06-08T23:45:10.527Z,69.66
2019-06-08T23:47:38.655Z,69.71
2019-06-08T23:50:11.251Z,69.65
2019-06-08T23:52:39.112Z,69.63
2019-06-08T23:55:10.488Z,69.78
2019-06-08T23:57:38.506Z,69.83
